createdAt,value
2023-03-11T00:00:31.140Z,0.40
2023-03-11T00:03:01.251Z,0.40
2023-03-11T00:05:31.350Z,0.43
2023-03-11T00:08:00.152Z,0.40
2023-03-11T00:10:30.875Z,0.40
2023-03-11T00:12:59.517Z,0.38
2023-03-11T00:15:30.854Z,0.40
2023-03-11T00:17:59.462Z,0.50
2023-03-11T00:20:29.774Z,0.30
2023-03-11T00:22:58.546Z,0.38
2023-03-11T00:25:29.567Z,0.30
2023-03-11T00:27:58.083Z,0.40
2023-03-11T00:30:28.519Z,0.30
2023-03-11T00:32:59.100Z,0.30
2023-03-11T00:35:29.381Z,0.30
2023-03-11T00:37:59.099Z,0.40
2023-03-11T00:40:30.329Z,0.30
2023-03-11T00:42:59.465Z,0.30
2023-03-11T00:45:30.100Z,0.40
2023-03-11T00:47:58.755Z,0.40
2023-03-11T00:50:30.065Z,0.40
2023-03-11T00:52:58.936Z,0.30
2023-03-11T00:55:29.336Z,0.50
2023-03-11T00:58:00.752Z,0.40
2023-03-11T01:00:36.321Z,0.40
2023-03-11T01:03:04.672Z,0.40
2023-03-11T01:05:34.585Z,0.35
2023-03-11T01:08:04.837Z,0.30
2023-03-11T01:10:34.424Z,0.38
2023-03-11T01:13:02.726Z,0.30
2023-03-11T01:15:34.889Z,0.40
2023-03-11T01:18:03.909Z,0.55
2023-03-11T01:20:34.645Z,0.40
2023-03-11T01:23:02.949Z,0.30
2023-03-11T01:25:31.482Z,0.30
2023-03-11T01:27:59.725Z,0.38
2023-03-11T01:30:29.413Z,0.50
2023-03-11T01:32:59.454Z,0.30
2023-03-11T01:35:30.048Z,0.40
2023-03-11T01:37:59.223Z,0.40
2023-03-11T01:40:31.980Z,0.25
2023-03-11T01:43:04.897Z,0.50
2023-03-11T01:46:12.634Z,0.40
2023-03-11T01:48:42.408Z,0.40
2023-03-11T01:51:10.861Z,0.40
2023-03-11T01:53:39.153Z,0.40
2023-03-11T01:56:07.968Z,0.30
2023-03-11T01:58:40.563Z,0.30
2023-03-11T02:01:08.986Z,0.30
2023-03-11T02:03:40.862Z,0.47
2023-03-11T02:06:11.968Z,0.40
2023-03-11T02:08:41.962Z,0.40
2023-03-11T02:11:16.811Z,0.30
2023-03-11T02:13:47.453Z,0.32
2023-03-11T02:16:16.017Z,0.30
2023-03-11T02:18:46.496Z,0.40
2023-03-11T02:21:26.363Z,0.30
2023-03-11T02:24:03.705Z,0.30
2023-03-11T02:26:37.867Z,0.40
2023-03-11T02:29:09.635Z,0.38
2023-03-11T02:31:42.907Z,0.47
2023-03-11T02:35:11.084Z,0.32
2023-03-11T02:37:45.337Z,0.40
2023-03-11T02:40:37.473Z,0.30
2023-03-11T02:43:08.686Z,0.30
2023-03-11T02:45:40.997Z,0.38
2023-03-11T02:48:11.769Z,0.40
2023-03-11T02:50:41.178Z,0.40
2023-03-11T02:53:10.006Z,0.30
2023-03-11T02:55:38.300Z,0.40
2023-03-11T02:58:08.453Z,0.30
2023-03-11T03:00:38.333Z,0.30
2023-03-11T03:03:10.582Z,0.30
2023-03-11T03:05:39.860Z,0.20
2023-03-11T03:08:08.095Z,0.30
2023-03-11T03:10:36.460Z,0.30
2023-03-11T03:13:04.869Z,0.30
2023-03-11T03:15:33.077Z,0.40
2023-03-11T03:18:03.447Z,0.40
2023-03-11T03:20:31.687Z,0.32
2023-03-11T03:23:02.829Z,0.30
2023-03-11T03:25:33.090Z,0.40
2023-03-11T03:28:05.876Z,0.40
2023-03-11T03:30:37.298Z,0.40
2023-03-11T03:33:07.950Z,0.40
2023-03-11T03:35:36.658Z,0.40
2023-03-11T03:38:11.482Z,0.30
2023-03-11T03:40:46.234Z,0.40
2023-03-11T03:43:15.732Z,0.30
2023-03-11T03:45:46.427Z,0.30
2023-03-11T03:48:16.355Z,0.32
2023-03-11T03:50:46.833Z,0.40
2023-03-11T03:53:18.156Z,0.40
2023-03-11T03:55:46.958Z,0.30
2023-03-11T03:58:15.621Z,0.38
2023-03-11T04:00:45.035Z,0.38
2023-03-11T04:03:14.950Z,0.32
2023-03-11T04:05:50.190Z,0.30
2023-03-11T04:08:18.680Z,0.50
2023-03-11T04:10:58.154Z,0.35
2023-03-11T04:13:27.916Z,0.40
2023-03-11T04:15:56.765Z,0.40
2023-03-11T04:18:26.610Z,0.40
2023-03-11T04:20:55.710Z,0.40
2023-03-11T04:23:24.183Z,0.40
2023-03-11T04:25:52.822Z,0.40
2023-03-11T04:28:21.699Z,0.40
2023-03-11T04:30:50.016Z,0.40
2023-03-11T04:33:18.975Z,0.50
2023-03-11T04:35:49.295Z,0.50
2023-03-11T04:38:19.694Z,0.40
2023-03-11T04:40:48.127Z,0.88
2023-03-11T04:43:16.842Z,0.40
2023-03-11T04:45:46.515Z,0.40
2023-03-11T04:48:14.994Z,0.50
2023-03-11T04:50:43.543Z,0.40
2023-03-11T04:53:13.607Z,0.40
2023-03-11T04:55:41.909Z,0.47
2023-03-11T04:58:10.415Z,0.45
2023-03-11T05:00:41.270Z,0.40
2023-03-11T05:03:12.422Z,0.40
2023-03-11T05:05:41.400Z,0.40
2023-03-11T05:08:10.371Z,0.30
2023-03-11T05:10:41.887Z,0.40
2023-03-11T05:13:11.643Z,0.40
2023-03-11T05:15:42.608Z,0.30
2023-03-11T05:18:11.899Z,0.40
2023-03-11T05:20:40.711Z,0.40
2023-03-11T05:23:10.364Z,0.50
2023-03-11T05:25:40.609Z,0.50
2023-03-11T05:28:09.867Z,0.50
2023-03-11T05:30:43.024Z,0.32
2023-03-11T05:33:11.851Z,0.47
2023-03-11T05:35:40.756Z,0.40
2023-03-11T05:38:09.316Z,0.50
2023-03-11T05:40:37.631Z,0.50
2023-03-11T05:43:07.446Z,0.40
2023-03-11T05:45:39.617Z,0.60
2023-03-11T05:48:08.491Z,0.82
2023-03-11T05:50:39.241Z,0.40
2023-03-11T05:53:08.127Z,0.52
2023-03-11T05:55:36.875Z,0.70
2023-03-11T05:58:07.481Z,0.40
2023-03-11T06:00:36.861Z,0.60
2023-03-11T06:03:06.096Z,0.50
2023-03-11T06:05:34.331Z,0.50
2023-03-11T06:08:02.646Z,0.50
2023-03-11T06:10:30.946Z,0.50
2023-03-11T06:12:59.241Z,0.50
2023-03-11T06:15:34.044Z,0.52
2023-03-11T06:18:02.465Z,0.40
2023-03-11T06:20:30.941Z,0.50
2023-03-11T06:22:59.309Z,0.50
2023-03-11T06:25:28.488Z,0.52
2023-03-11T06:27:56.700Z,0.50
2023-03-11T06:30:26.463Z,0.50
2023-03-11T06:33:06.932Z,0.63
2023-03-11T06:35:35.233Z,0.50
2023-03-11T06:38:03.745Z,0.57
2023-03-11T06:40:32.048Z,0.63
2023-03-11T06:43:00.369Z,0.57
2023-03-11T06:45:32.972Z,0.60
2023-03-11T06:48:01.615Z,0.45
2023-03-11T06:50:32.098Z,0.50
2023-03-11T06:53:03.034Z,0.40
2023-03-11T06:55:32.387Z,0.73
2023-03-11T06:58:01.820Z,0.85
2023-03-11T07:00:31.254Z,0.50
2023-03-11T07:03:01.121Z,0.50
2023-03-11T07:05:30.797Z,0.70
2023-03-11T07:08:03.605Z,0.60
2023-03-11T07:10:31.864Z,0.70
2023-03-11T07:13:00.214Z,0.63
2023-03-11T07:15:28.645Z,0.40
2023-03-11T07:17:57.228Z,0.50
2023-03-11T07:20:25.760Z,0.40
2023-03-11T07:22:58.613Z,0.57
2023-03-11T07:25:26.982Z,0.40
2023-03-11T07:27:55.251Z,0.80
2023-03-11T07:30:23.518Z,0.50
2023-03-11T07:32:51.884Z,0.60
2023-03-11T07:35:20.260Z,0.68
2023-03-11T07:37:48.510Z,0.50
2023-03-11T07:40:18.696Z,0.60
2023-03-11T07:42:47.060Z,0.50
2023-03-11T07:45:15.489Z,0.60
2023-03-11T07:47:43.764Z,0.50
2023-03-11T07:50:12.898Z,0.70
2023-03-11T07:52:41.194Z,0.65
2023-03-11T07:55:10.473Z,0.50
2023-03-11T07:57:40.108Z,0.73
2023-03-11T08:00:09.906Z,0.45
2023-03-11T08:02:40.946Z,0.60
2023-03-11T08:05:10.233Z,0.60
2023-03-11T08:07:38.606Z,0.60
2023-03-11T08:10:07.935Z,0.60
2023-03-11T08:12:36.311Z,0.70
2023-03-11T08:15:07.009Z,0.60
2023-03-11T08:17:35.227Z,0.63
2023-03-11T08:20:04.924Z,0.50
2023-03-11T08:22:33.265Z,0.70
2023-03-11T08:25:01.549Z,0.90
2023-03-11T08:27:30.489Z,0.75
2023-03-11T08:29:59.763Z,0.60
2023-03-11T08:32:31.590Z,0.70
2023-03-11T08:35:01.360Z,0.85
2023-03-11T08:37:31.544Z,0.70
2023-03-11T08:39:59.981Z,0.70
2023-03-11T08:42:28.328Z,0.75
2023-03-11T08:44:56.698Z,1.10
2023-03-11T08:47:25.051Z,0.80
2023-03-11T08:49:54.731Z,0.85
2023-03-11T08:52:23.068Z,0.90
2023-03-11T08:54:51.444Z,0.80
2023-03-11T08:57:19.763Z,0.88
2023-03-11T08:59:48.090Z,1.02
2023-03-11T09:02:16.380Z,1.17
2023-03-11T09:04:44.730Z,1.02
2023-03-11T09:07:19.375Z,0.75
2023-03-11T09:09:47.629Z,0.90
2023-03-11T09:12:16.008Z,1.00
2023-03-11T09:14:45.376Z,1.00
2023-03-11T09:17:14.373Z,1.02
2023-03-11T09:19:42.968Z,0.85
2023-03-11T09:22:11.303Z,0.90
2023-03-11T09:24:41.024Z,0.80
2023-03-11T09:27:09.354Z,1.00
2023-03-11T09:29:37.717Z,1.10
2023-03-11T09:32:06.720Z,1.00
2023-03-11T09:34:35.262Z,1.10
2023-03-11T09:37:03.537Z,0.93
2023-03-11T09:39:31.833Z,0.77
2023-03-11T09:42:06.312Z,1.00
2023-03-11T09:44:41.655Z,1.00
2023-03-11T09:47:31.555Z,1.15
2023-03-11T09:50:27.630Z,1.10
2023-03-11T09:53:14.239Z,0.98
2023-03-11T09:55:46.302Z,0.85
2023-03-11T09:58:36.732Z,1.02
2023-03-11T10:01:15.442Z,0.95
2023-03-11T10:03:45.616Z,0.90
2023-03-11T10:06:17.826Z,0.80
2023-03-11T10:08:53.613Z,1.13
2023-03-11T10:11:47.052Z,1.05
2023-03-11T10:14:29.392Z,0.90
2023-03-11T10:17:05.421Z,0.98
2023-03-11T10:19:42.529Z,0.88
2023-03-11T10:22:19.200Z,0.90
2023-03-11T10:24:58.699Z,0.82
2023-03-11T10:27:31.212Z,0.70
2023-03-11T10:30:08.067Z,0.90
2023-03-11T10:32:42.018Z,0.80
2023-03-11T10:35:18.461Z,0.88
2023-03-11T10:37:52.918Z,0.80
2023-03-11T10:40:27.235Z,1.10
2023-03-11T10:42:58.504Z,0.98
2023-03-11T10:45:30.044Z,0.98
2023-03-11T10:47:58.969Z,0.88
2023-03-11T10:50:27.429Z,0.90
2023-03-11T10:53:16.012Z,0.90
2023-03-11T10:55:47.889Z,0.80
2023-03-11T10:58:18.501Z,0.98
2023-03-11T11:01:00.509Z,0.70
2023-03-11T11:03:29.566Z,0.80
2023-03-11T11:06:04.252Z,1.00
2023-03-11T11:08:33.426Z,0.93
2023-03-11T11:11:03.206Z,0.85
2023-03-11T11:13:34.486Z,0.82
2023-03-11T11:16:07.141Z,0.90
2023-03-11T11:18:38.214Z,0.70
2023-03-11T11:21:08.773Z,0.82
2023-03-11T11:23:43.562Z,0.77
2023-03-11T11:26:18.996Z,0.95
2023-03-11T11:28:47.592Z,0.80
2023-03-11T11:31:25.218Z,0.90
2023-03-11T11:33:55.238Z,0.77
2023-03-11T11:36:28.088Z,0.75
2023-03-11T11:38:57.489Z,0.80
2023-03-11T11:41:30.143Z,0.70
2023-03-11T11:44:02.397Z,0.80
2023-03-11T11:46:38.266Z,0.82
2023-03-11T11:49:17.928Z,0.80
2023-03-11T11:51:50.328Z,0.60
2023-03-11T11:54:24.268Z,0.60
2023-03-11T11:56:54.475Z,0.88
2023-03-11T11:59:24.241Z,0.90
2023-03-11T12:02:07.401Z,0.70
2023-03-11T12:04:49.213Z,0.75
2023-03-11T12:07:41.091Z,0.82
2023-03-11T12:10:27.439Z,0.73
2023-03-11T12:13:29.025Z,0.85
2023-03-11T12:16:02.687Z,0.73
2023-03-11T12:18:38.950Z,0.68
2023-03-11T12:21:17.165Z,0.70
2023-03-11T12:23:59.840Z,1.00
2023-03-11T12:26:33.821Z,0.60
2023-03-11T12:29:08.081Z,0.70
2023-03-11T12:31:39.897Z,0.70
2023-03-11T12:34:13.338Z,0.60
2023-03-11T12:36:43.974Z,0.52
2023-03-11T12:39:23.940Z,0.63
2023-03-11T12:42:16.715Z,0.63
2023-03-11T12:44:46.535Z,0.80
2023-03-11T12:47:25.780Z,0.80
2023-03-11T12:49:57.436Z,0.60
2023-03-11T12:52:30.583Z,0.80
2023-03-11T12:55:37.684Z,0.60
2023-03-11T12:58:43.484Z,0.70
2023-03-11T13:01:35.403Z,0.80
2023-03-11T13:04:19.758Z,0.70
2023-03-11T13:07:21.756Z,0.85
2023-03-11T13:10:03.097Z,0.50
2023-03-11T13:12:43.163Z,0.50
2023-03-11T13:15:37.501Z,0.50
2023-03-11T13:18:18.818Z,0.68
2023-03-11T13:20:51.553Z,0.50
2023-03-11T13:23:30.836Z,0.50
2023-03-11T13:26:17.525Z,0.63
2023-03-11T13:29:06.769Z,0.50
2023-03-11T13:31:48.278Z,0.80
2023-03-11T13:34:19.213Z,0.70
2023-03-11T13:37:08.904Z,0.68
2023-03-11T13:39:56.993Z,0.60
2023-03-11T13:42:32.405Z,0.60
2023-03-11T13:45:01.860Z,0.63
2023-03-11T13:47:31.380Z,0.88
2023-03-11T13:50:04.468Z,0.55
2023-03-11T13:52:34.743Z,0.63
2023-03-11T13:55:07.498Z,0.50
2023-03-11T13:57:37.740Z,0.50
2023-03-11T14:00:17.574Z,0.60
2023-03-11T14:02:51.016Z,0.60
2023-03-11T14:05:22.308Z,0.70
2023-03-11T14:07:50.595Z,0.50
2023-03-11T14:10:28.811Z,0.52
2023-03-11T14:13:15.230Z,0.60
2023-03-11T14:15:53.152Z,0.50
2023-03-11T14:18:31.146Z,0.60
2023-03-11T14:21:00.241Z,0.50
2023-03-11T14:23:32.451Z,0.60
2023-03-11T14:26:08.911Z,0.50
2023-03-11T14:28:41.340Z,0.60
2023-03-11T14:31:21.270Z,0.50
2023-03-11T14:33:57.160Z,0.50
2023-03-11T14:36:25.609Z,0.50
2023-03-11T14:38:54.049Z,0.88
2023-03-11T14:41:24.038Z,0.50
2023-03-11T14:43:55.223Z,0.60
2023-03-11T14:46:28.092Z,0.70
2023-03-11T14:48:58.306Z,0.50
2023-03-11T14:51:33.277Z,0.65
2023-03-11T14:54:09.799Z,0.75
2023-03-11T14:56:42.481Z,0.63
2023-03-11T14:59:16.382Z,0.60
2023-03-11T15:01:46.966Z,0.60
2023-03-11T15:04:23.859Z,0.68
2023-03-11T15:06:52.445Z,0.60
2023-03-11T15:09:23.440Z,0.50
2023-03-11T15:11:55.308Z,0.63
2023-03-11T15:14:26.037Z,0.60
2023-03-11T15:16:55.543Z,0.50
2023-03-11T15:19:34.542Z,0.70
2023-03-11T15:22:22.503Z,0.57
2023-03-11T15:24:52.749Z,0.50
2023-03-11T15:27:30.133Z,0.60
2023-03-11T15:30:00.175Z,0.80
2023-03-11T15:32:40.153Z,0.70
2023-03-11T15:35:19.876Z,0.60
2023-03-11T15:37:49.665Z,0.57
2023-03-11T15:40:30.010Z,0.57
2023-03-11T15:43:30.501Z,0.40
2023-03-11T15:46:01.218Z,0.60
2023-03-11T15:48:31.253Z,0.50
2023-03-11T15:51:01.246Z,0.50
2023-03-11T15:53:30.781Z,0.50
2023-03-11T15:56:07.374Z,0.63
2023-03-11T15:58:39.165Z,0.75
2023-03-11T16:01:07.704Z,0.60
2023-03-11T16:03:36.517Z,0.50
2023-03-11T16:06:05.143Z,0.50
2023-03-11T16:08:34.612Z,0.52
2023-03-11T16:11:03.079Z,1.02
2023-03-11T16:13:31.583Z,0.68
2023-03-11T16:16:03.457Z,0.60
2023-03-11T16:18:33.982Z,1.00
2023-03-11T16:21:09.977Z,0.60
2023-03-11T16:23:51.107Z,0.50
2023-03-11T16:26:21.462Z,0.50
2023-03-11T16:28:49.708Z,0.93
2023-03-11T16:31:19.556Z,0.80
2023-03-11T16:33:47.915Z,0.47
2023-03-11T16:36:16.346Z,0.70
2023-03-11T16:38:46.690Z,0.70
2023-03-11T16:41:15.744Z,0.57
2023-03-11T16:43:44.192Z,0.50
2023-03-11T16:46:12.611Z,0.60
2023-03-11T16:48:42.307Z,0.60
2023-03-11T16:51:10.724Z,0.70
2023-03-11T16:53:38.963Z,0.68
2023-03-11T16:56:07.861Z,0.68
2023-03-11T16:58:36.179Z,0.52
2023-03-11T17:01:04.662Z,0.70
2023-03-11T17:03:41.908Z,0.47
2023-03-11T17:06:12.266Z,0.70
2023-03-11T17:08:40.580Z,0.60
2023-03-11T17:11:16.301Z,0.63
2023-03-11T17:13:44.715Z,0.80
2023-03-11T17:16:13.760Z,0.93
2023-03-11T17:18:42.127Z,0.52
2023-03-11T17:21:15.476Z,0.70
2023-03-11T17:23:44.164Z,0.50
2023-03-11T17:26:15.633Z,0.70
2023-03-11T17:28:44.517Z,0.63
2023-03-11T17:31:13.970Z,0.60
2023-03-11T17:33:43.526Z,0.60
2023-03-11T17:36:16.008Z,0.60
2023-03-11T17:38:44.813Z,0.77
2023-03-11T17:41:15.364Z,0.80
2023-03-11T17:43:44.748Z,0.68
2023-03-11T17:46:15.484Z,0.60
2023-03-11T17:48:44.256Z,0.70
2023-03-11T17:51:15.469Z,0.50
2023-03-11T17:53:45.987Z,0.80
2023-03-11T17:56:16.467Z,1.33
2023-03-11T17:58:45.061Z,0.75
2023-03-11T18:01:16.075Z,0.80
2023-03-11T18:03:44.473Z,0.77
2023-03-11T18:06:14.598Z,0.70
2023-03-11T18:08:43.134Z,0.82
2023-03-11T18:11:17.563Z,0.88
2023-03-11T18:13:47.056Z,0.73
2023-03-11T18:16:17.679Z,0.75
2023-03-11T18:18:46.385Z,0.80
2023-03-11T18:21:18.118Z,0.80
2023-03-11T18:23:47.174Z,0.75
2023-03-11T18:26:17.393Z,0.60
2023-03-11T18:28:46.465Z,0.70
2023-03-11T18:31:16.142Z,0.85
2023-03-11T18:33:49.152Z,0.80
2023-03-11T18:36:21.390Z,0.90
2023-03-11T18:38:50.627Z,0.80
2023-03-11T18:41:18.909Z,0.63
2023-03-11T18:43:47.242Z,0.70
2023-03-11T18:46:17.509Z,0.85
2023-03-11T18:48:46.451Z,0.80
2023-03-11T18:51:15.346Z,0.95
2023-03-11T18:53:44.976Z,0.70
2023-03-11T18:56:15.215Z,1.02
2023-03-11T18:58:43.869Z,0.85
2023-03-11T19:01:15.104Z,0.80
2023-03-11T19:03:43.928Z,0.98
2023-03-11T19:06:14.072Z,0.93
2023-03-11T19:08:42.538Z,1.05
2023-03-11T19:11:13.736Z,0.80
2023-03-11T19:13:47.095Z,1.10
2023-03-11T19:16:17.740Z,1.00
2023-03-11T19:18:46.607Z,1.02
2023-03-11T19:21:16.184Z,0.70
2023-03-11T19:23:45.311Z,1.10
2023-03-11T19:26:15.319Z,0.90
2023-03-11T19:28:43.523Z,1.20
2023-03-11T19:31:11.820Z,1.00
2023-03-11T19:33:40.383Z,1.00
2023-03-11T19:36:09.965Z,1.10
2023-03-11T19:38:39.569Z,1.02
2023-03-11T19:41:09.742Z,0.88
2023-03-11T19:43:39.346Z,0.90
2023-03-11T19:46:09.928Z,0.88
2023-03-11T19:48:38.274Z,1.00
2023-03-11T19:51:07.105Z,0.93
2023-03-11T19:53:36.776Z,1.20
2023-03-11T19:56:06.752Z,0.90
2023-03-11T19:58:35.339Z,0.90
2023-03-11T20:01:05.455Z,0.90
2023-03-11T20:03:33.838Z,0.98
2023-03-11T20:06:06.322Z,1.17
2023-03-11T20:08:36.712Z,0.90
2023-03-11T20:11:06.206Z,0.90
2023-03-11T20:13:36.154Z,1.40
2023-03-11T20:16:11.617Z,1.10
2023-03-11T20:18:40.185Z,1.15
2023-03-11T20:21:10.198Z,1.30
2023-03-11T20:23:39.411Z,1.10
2023-03-11T20:26:08.526Z,0.90
2023-03-11T20:28:36.976Z,1.10
2023-03-11T20:31:12.843Z,1.10
2023-03-11T20:33:41.361Z,1.00
2023-03-11T20:36:13.038Z,1.13
2023-03-11T20:38:41.854Z,0.90
2023-03-11T20:41:11.026Z,1.25
2023-03-11T20:43:40.048Z,1.33
2023-03-11T20:46:11.557Z,1.00
2023-03-11T20:48:40.902Z,1.00
2023-03-11T20:51:11.691Z,1.40
2023-03-11T20:53:40.018Z,0.98
2023-03-11T20:56:10.831Z,1.20
2023-03-11T20:58:39.900Z,1.02
2023-03-11T21:01:21.489Z,1.38
2023-03-11T21:03:50.234Z,1.10
2023-03-11T21:06:20.831Z,1.08
2023-03-11T21:08:49.539Z,1.42
2023-03-11T21:11:18.794Z,1.20
2023-03-11T21:13:47.137Z,1.00
2023-03-11T21:16:15.732Z,1.20
2023-03-11T21:18:49.175Z,1.10
2023-03-11T21:21:19.728Z,1.30
2023-03-11T21:23:48.860Z,1.10
2023-03-11T21:26:18.667Z,1.63
2023-03-11T21:28:47.695Z,1.35
2023-03-11T21:31:18.107Z,1.30
2023-03-11T21:33:48.553Z,1.25
2023-03-11T21:36:17.837Z,1.30
2023-03-11T21:38:47.225Z,1.27
2023-03-11T21:41:18.158Z,1.15
2023-03-11T21:43:47.141Z,1.13
2023-03-11T21:46:18.221Z,1.20
2023-03-11T21:48:49.261Z,1.30
2023-03-11T21:51:18.934Z,1.10
2023-03-11T21:53:47.563Z,1.50
2023-03-11T21:56:16.689Z,1.10
2023-03-11T21:58:45.052Z,1.30
2023-03-11T22:01:13.958Z,1.15
2023-03-11T22:03:43.797Z,1.13
2023-03-11T22:06:14.076Z,1.50
2023-03-11T22:08:42.838Z,1.30
2023-03-11T22:11:17.583Z,1.30
2023-03-11T22:13:46.908Z,1.30
2023-03-11T22:16:15.582Z,1.50
2023-03-11T22:18:45.097Z,1.13
2023-03-11T22:21:16.191Z,1.27
2023-03-11T22:23:45.090Z,1.08
2023-03-11T22:26:14.289Z,1.40
2023-03-11T22:28:42.726Z,1.23
2023-03-11T22:31:12.388Z,1.10
2023-03-11T22:33:41.017Z,1.30
2023-03-11T22:36:09.958Z,1.02
2023-03-11T22:38:42.034Z,1.38
2023-03-11T22:41:10.699Z,1.23
2023-03-11T22:43:39.436Z,1.60
2023-03-11T22:46:08.547Z,1.42
2023-03-11T22:48:37.293Z,1.25
2023-03-11T22:51:07.279Z,1.40
2023-03-11T22:53:35.861Z,1.08
2023-03-11T22:56:10.887Z,1.30
2023-03-11T22:58:39.261Z,1.13
2023-03-11T23:01:08.013Z,1.30
2023-03-11T23:03:37.044Z,1.40
2023-03-11T23:06:08.292Z,1.17
2023-03-11T23:08:37.714Z,1.40
2023-03-11T23:11:09.593Z,1.30
2023-03-11T23:13:39.259Z,1.50
2023-03-11T23:16:09.884Z,1.25
2023-03-11T23:18:38.837Z,1.38
2023-03-11T23:21:14.407Z,1.40
2023-03-11T23:23:42.673Z,1.38
2023-03-11T23:26:13.471Z,1.13
2023-03-11T23:28:42.412Z,1.17
2023-03-11T23:31:11.906Z,1.30
2023-03-11T23:33:40.526Z,1.30
2023-03-11T23:36:11.398Z,1.33
2023-03-11T23:38:40.326Z,1.30
2023-03-11T23:41:09.649Z,1.20
2023-03-11T23:43:39.639Z,1.10
2023-03-11T23:46:10.354Z,1.30
2023-03-11T23:48:39.341Z,1.10
2023-03-11T23:51:09.378Z,1.20
2023-03-11T23:53:38.692Z,1.50
2023-03-11T23:56:11.373Z,1.38
2023-03-11T23:58:41.176Z,1.30
